sensor_id;sensor_type;location;lat;lon;timestamp;pressure;altitude;pressure_sealevel;temperature;humidity
10796;BME280;5450;42.994;23.372;2022-07-06T00:00:06;96269.88;;;21.45;100.00
10796;BME280;5450;42.994;23.372;2022-07-06T00:02:35;96277.56;;;21.41;100.00
10796;BME280;5450;42.994;23.372;2022-07-06T00:05:02;96260.72;;;21.29;100.00
10796;BME280;5450;42.994;23.372;2022-07-06T00:07:29;96279.22;;;21.31;100.00
10796;BME280;5450;42.994;23.372;2022-07-06T00:09:57;96268.91;;;21.11;100.00
10796;BME280;5450;42.994;23.372;2022-07-06T00:12:24;96292.25;;;21.16;100.00
10796;BME280;5450;42.994;23.372;2022-07-06T00:14:51;96289.00;;;21.13;100.00
10796;BME280;5450;42.994;23.372;2022-07-06T00:17:20;96283.41;;;21.03;100.00
10796;BME280;5450;42.994;23.372;2022-07-06T00:19:47;96255.97;;;20.96;100.00
10796;BME280;5450;42.994;23.372;2022-07-06T00:22:15;96280.72;;;21.03;100.00
10796;BME280;5450;42.994;23.372;2022-07-06T00:24:42;96275.84;;;21.00;100.00
10796;BME280;5450;42.994;23.372;2022-07-06T00:27:09;96274.19;;;20.99;100.00
10796;BME280;5450;42.994;23.372;2022-07-06T00:29:36;96271.50;;;20.88;100.00
10796;BME280;5450;42.994;23.372;2022-07-06T00:32:09;96247.38;;;20.71;100.00
10796;BME280;5450;42.994;23.372;2022-07-06T00:34:38;96269.66;;;20.88;100.00
10796;BME280;5450;42.994;23.372;2022-07-06T00:37:05;96262.22;;;20.90;100.00
10796;BME280;5450;42.994;23.372;2022-07-06T00:39:32;96260.63;;;20.89;100.00
10796;BME280;5450;42.994;23.372;2022-07-06T00:41:59;96264.91;;;20.90;100.00
10796;BME280;5450;42.994;23.372;2022-07-06T00:44:27;96261.78;;;20.93;100.00
10796;BME280;5450;42.994;23.372;2022-07-06T00:46:54;96251.81;;;21.00;100.00
10796;BME280;5450;42.994;23.372;2022-07-06T00:49:21;96229.25;;;20.73;100.00
10796;BME280;5450;42.994;23.372;2022-07-06T00:52:08;96244.59;;;20.89;100.00
10796;BME280;5450;42.994;23.372;2022-07-06T00:54:36;96230.66;;;20.87;100.00
10796;BME280;5450;42.994;23.372;2022-07-06T00:57:03;96228.69;;;20.83;100.00
10796;BME280;5450;42.994;23.372;2022-07-06T00:59:30;96232.41;;;20.93;100.00
10796;BME280;5450;42.994;23.372;2022-07-06T01:01:58;96227.97;;;20.99;100.00
10796;BME280;5450;42.994;23.372;2022-07-06T01:04:25;96206.16;;;20.79;100.00
10796;BME280;5450;42.994;23.372;2022-07-06T01:06:53;96189.44;;;20.60;100.00
10796;BME280;5450;42.994;23.372;2022-07-06T01:09:22;96233.44;;;20.92;100.00
10796;BME280;5450;42.994;23.372;2022-07-06T01:11:50;96228.78;;;20.99;100.00
10796;BME280;5450;42.994;23.372;2022-07-06T01:14:19;96237.16;;;20.91;100.00
10796;BME280;5450;42.994;23.372;2022-07-06T01:16:47;96236.00;;;20.87;100.00
10796;BME280;5450;42.994;23.372;2022-07-06T01:19:14;96230.66;;;20.87;100.00
10796;BME280;5450;42.994;23.372;2022-07-06T01:21:43;96227.88;;;20.82;100.00
10796;BME280;5450;42.994;23.372;2022-07-06T01:24:10;96227.06;;;20.70;100.00
10796;BME280;5450;42.994;23.372;2022-07-06T01:26:37;96233.91;;;20.66;100.00
10796;BME280;5450;42.994;23.372;2022-07-06T01:29:04;96229.03;;;20.63;100.00
10796;BME280;5450;42.994;23.372;2022-07-06T01:31:31;96230.41;;;20.54;100.00
10796;BME280;5450;42.994;23.372;2022-07-06T01:33:58;96228.78;;;20.53;100.00
10796;BME280;5450;42.994;23.372;2022-07-06T01:36:28;96226.94;;;20.42;100.00
10796;BME280;5450;42.994;23.372;2022-07-06T01:39:00;96219.59;;;20.26;100.00
10796;BME280;5450;42.994;23.372;2022-07-06T01:41:27;96214.69;;;19.82;100.00
10796;BME280;5450;42.994;23.372;2022-07-06T01:43:54;96239.06;;;19.97;100.00
10796;BME280;5450;42.994;23.372;2022-07-06T01:46:21;96229.59;;;20.01;100.00
10796;BME280;5450;42.994;23.372;2022-07-06T01:48:49;96102.81;;;18.86;100.00
10796;BME280;5450;42.994;23.372;2022-07-06T01:51:15;96172.53;;;19.60;100.00
10796;BME280;5450;42.994;23.372;2022-07-06T01:53:43;96223.44;;;20.00;100.00
10796;BME280;5450;42.994;23.372;2022-07-06T01:56:12;96225.44;;;20.05;100.00
10796;BME280;5450;42.994;23.372;2022-07-06T01:58:39;96224.53;;;20.11;100.00
10796;BME280;5450;42.994;23.372;2022-07-06T02:01:07;96215.00;;;20.15;100.00
10796;BME280;5450;42.994;23.372;2022-07-06T02:03:34;96222.88;;;20.10;100.00
10796;BME280;5450;42.994;23.372;2022-07-06T02:06:02;96238.09;;;19.80;100.00
10796;BME280;5450;42.994;23.372;2022-07-06T02:08:29;96231.41;;;19.89;100.00
10796;BME280;5450;42.994;23.372;2022-07-06T02:10:56;96222.81;;;19.87;100.00
10796;BME280;5450;42.994;23.372;2022-07-06T02:13:25;96236.75;;;19.89;100.00
10796;BME280;5450;42.994;23.372;2022-07-06T02:15:52;96229.47;;;19.96;100.00
10796;BME280;5450;42.994;23.372;2022-07-06T02:18:20;96219.72;;;19.90;100.00
10796;BME280;5450;42.994;23.372;2022-07-06T02:20:47;96225.44;;;20.05;100.00
10796;BME280;5450;42.994;23.372;2022-07-06T02:23:14;96229.59;;;20.01;100.00
10796;BME280;5450;42.994;23.372;2022-07-06T02:25:40;96232.84;;;20.03;100.00
10796;BME280;5450;42.994;23.372;2022-07-06T02:28:07;96234.34;;;19.99;100.00
10796;BME280;5450;42.994;23.372;2022-07-06T02:30:36;96245.13;;;19.92;100.00
10796;BME280;5450;42.994;23.372;2022-07-06T02:33:03;96252.66;;;19.95;100.00
10796;BME280;5450;42.994;23.372;2022-07-06T02:35:30;96255.47;;;20.00;100.00
10796;BME280;5450;42.994;23.372;2022-07-06T02:37:58;96256.28;;;20.01;100.00
10796;BME280;5450;42.994;23.372;2022-07-06T02:40:24;96261.97;;;19.75;100.00
10796;BME280;5450;42.994;23.372;2022-07-06T02:42:51;96239.34;;;19.47;100.00
10796;BME280;5450;42.994;23.372;2022-07-06T02:45:18;96268.91;;;19.76;100.00
10796;BME280;5450;42.994;23.372;2022-07-06T02:47:47;96268.91;;;19.76;100.00
10796;BME280;5450;42.994;23.372;2022-07-06T02:50:14;96266.63;;;19.79;100.00
10796;BME280;5450;42.994;23.372;2022-07-06T02:52:41;96267.31;;;19.75;100.00
10796;BME280;5450;42.994;23.372;2022-07-06T02:55:08;96257.81;;;19.79;100.00
10796;BME280;5450;42.994;23.372;2022-07-06T02:57:35;96270.81;;;19.87;100.00
10796;BME280;5450;42.994;23.372;2022-07-06T03:00:02;96272.47;;;19.88;100.00
10796;BME280;5450;42.994;23.372;2022-07-06T03:02:30;96272.22;;;19.89;100.00
10796;BME280;5450;42.994;23.372;2022-07-06T03:04:58;96287.19;;;19.90;100.00
10796;BME280;5450;42.994;23.372;2022-07-06T03:07:25;96264.41;;;19.76;100.00
10796;BME280;5450;42.994;23.372;2022-07-06T03:09:53;96269.81;;;19.70;100.00
10796;BME280;5450;42.994;23.372;2022-07-06T03:12:20;96272.31;;;19.83;100.00
10796;BME280;5450;42.994;23.372;2022-07-06T03:14:47;96273.63;;;19.92;100.00
10796;BME280;5450;42.994;23.372;2022-07-06T03:17:14;96231.34;;;19.47;100.00
10796;BME280;5450;42.994;23.372;2022-07-06T03:19:40;96269.81;;;19.70;100.00
10796;BME280;5450;42.994;23.372;2022-07-06T03:22:09;96280.06;;;19.54;100.00
10796;BME280;5450;42.994;23.372;2022-07-06T03:24:36;96288.63;;;19.38;100.00
10796;BME280;5450;42.994;23.372;2022-07-06T03:27:04;96278.03;;;19.32;100.00
10796;BME280;5450;42.994;23.372;2022-07-06T03:29:31;96272.66;;;19.38;100.00
10796;BME280;5450;42.994;23.372;2022-07-06T03:31:58;96235.41;;;19.32;100.00
10796;BME280;5450;42.994;23.372;2022-07-06T03:34:25;96276.38;;;19.55;100.00
10796;BME280;5450;42.994;23.372;2022-07-06T03:36:52;96277.22;;;19.67;100.00
10796;BME280;5450;42.994;23.372;2022-07-06T03:39:21;96266.91;;;19.71;100.00
10796;BME280;5450;42.994;23.372;2022-07-06T03:41:48;96276.78;;;19.71;100.00
10796;BME280;5450;42.994;23.372;2022-07-06T03:44:15;96279.38;;;19.59;100.00
10796;BME280;5450;42.994;23.372;2022-07-06T03:46:42;96281.81;;;19.60;100.00
10796;BME280;5450;42.994;23.372;2022-07-06T03:49:09;96281.97;;;19.65;100.00
10796;BME280;5450;42.994;23.372;2022-07-06T03:51:36;96284.63;;;19.65;100.00
10796;BME280;5450;42.994;23.372;2022-07-06T03:54:03;96275.41;;;19.50;100.00
10796;BME280;5450;42.994;23.372;2022-07-06T03:56:31;96281.69;;;19.55;100.00
10796;BME280;5450;42.994;23.372;2022-07-06T03:59:00;96283.47;;;19.61;100.00
10796;BME280;5450;42.994;23.372;2022-07-06T04:01:28;96287.81;;;19.74;100.00
10796;BME280;5450;42.994;23.372;2022-07-06T04:03:56;96285.38;;;19.73;100.00
10796;BME280;5450;42.994;23.372;2022-07-06T04:06:23;96274.97;;;19.83;100.00
10796;BME280;5450;42.994;23.372;2022-07-06T04:08:51;96205.75;;;19.46;100.00
10796;BME280;5450;42.994;23.372;2022-07-06T04:11:18;96288.00;;;19.91;100.00
10796;BME280;5450;42.994;23.372;2022-07-06T04:13:46;96283.81;;;19.95;100.00
10796;BME280;5450;42.994;23.372;2022-07-06T04:16:13;96286.72;;;19.93;100.00
10796;BME280;5450;42.994;23.372;2022-07-06T04:18:40;96284.38;;;19.85;100.00
10796;BME280;5450;42.994;23.372;2022-07-06T04:21:07;96293.22;;;19.86;100.00
10796;BME280;5450;42.994;23.372;2022-07-06T04:23:34;96293.31;;;19.91;100.00
10796;BME280;5450;42.994;23.372;2022-07-06T04:26:01;96298.38;;;19.99;100.00
10796;BME280;5450;42.994;23.372;2022-07-06T04:28:28;96301.38;;;20.02;100.00
10796;BME280;5450;42.994;23.372;2022-07-06T04:30:57;96311.69;;;19.99;100.00
10796;BME280;5450;42.994;23.372;2022-07-06T04:33:24;96306.53;;;19.86;100.00
10796;BME280;5450;42.994;23.372;2022-07-06T04:35:51;96301.97;;;19.75;100.00
10796;BME280;5450;42.994;23.372;2022-07-06T04:38:18;96302.09;;;19.80;100.00
10796;BME280;5450;42.994;23.372;2022-07-06T04:40:45;96313.94;;;19.84;100.00
10796;BME280;5450;42.994;23.372;2022-07-06T04:43:12;96312.47;;;19.88;100.00
10796;BME280;5450;42.994;23.372;2022-07-06T04:45:40;96324.38;;;19.85;100.00
10796;BME280;5450;42.994;23.372;2022-07-06T04:48:08;96322.53;;;19.86;100.00
10796;BME280;5450;42.994;23.372;2022-07-06T04:50:35;96313.81;;;19.60;100.00
10796;BME280;5450;42.994;23.372;2022-07-06T04:53:02;96319.88;;;19.67;100.00
10796;BME280;5450;42.994;23.372;2022-07-06T04:55:29;96317.81;;;19.70;100.00
10796;BME280;5450;42.994;23.372;2022-07-06T04:57:56;96320.63;;;19.75;100.00
10796;BME280;5450;42.994;23.372;2022-07-06T05:00:23;96326.22;;;19.85;100.00
10796;BME280;5450;42.994;23.372;2022-07-06T05:02:50;96326.22;;;19.85;100.00
10796;BME280;5450;42.994;23.372;2022-07-06T05:05:19;96337.34;;;19.82;100.00
10796;BME280;5450;42.994;23.372;2022-07-06T05:07:46;96339.28;;;19.75;100.00
10796;BME280;5450;42.994;23.372;2022-07-06T05:10:13;96310.94;;;19.62;100.00
10796;BME280;5450;42.994;23.372;2022-07-06T05:12:40;96340.94;;;19.57;100.00
10796;BME280;5450;42.994;23.372;2022-07-06T05:15:08;96281.97;;;19.47;100.00
10796;BME280;5450;42.994;23.372;2022-07-06T05:17:35;96321.06;;;19.90;100.00
10796;BME280;5450;42.994;23.372;2022-07-06T05:20:03;96330.78;;;20.14;100.00
10796;BME280;5450;42.994;23.372;2022-07-06T05:22:32;96331.34;;;20.34;100.00
10796;BME280;5450;42.994;23.372;2022-07-06T05:24:59;96331.03;;;20.54;100.00
10796;BME280;5450;42.994;23.372;2022-07-06T05:27:26;96341.41;;;20.73;100.00
10796;BME280;5450;42.994;23.372;2022-07-06T05:29:53;96327.03;;;20.74;100.00
10796;BME280;5450;42.994;23.372;2022-07-06T05:32:19;96328.53;;;20.82;100.00
10796;BME280;5450;42.994;23.372;2022-07-06T05:34:46;96313.09;;;20.72;100.00
10796;BME280;5450;42.994;23.372;2022-07-06T05:37:14;96328.69;;;20.98;100.00
10796;BME280;5450;42.994;23.372;2022-07-06T05:39:42;96345.09;;;21.13;100.00
10796;BME280;5450;42.994;23.372;2022-07-06T05:42:10;96345.78;;;21.32;100.00
10796;BME280;5450;42.994;23.372;2022-07-06T05:44:37;96335.53;;;21.52;100.00
10796;BME280;5450;42.994;23.372;2022-07-06T05:47:05;96338.88;;;21.71;100.00
10796;BME280;5450;42.994;23.372;2022-07-06T05:49:49;96362.25;;;21.87;100.00
10796;BME280;5450;42.994;23.372;2022-07-06T05:52:33;96341.94;;;22.03;100.00
10796;BME280;5450;42.994;23.372;2022-07-06T05:55:02;96347.56;;;22.29;100.00
10796;BME280;5450;42.994;23.372;2022-07-06T05:57:29;96350.50;;;22.44;100.00
10796;BME280;5450;42.994;23.372;2022-07-06T05:59:56;96351.59;;;22.43;100.00
10796;BME280;5450;42.994;23.372;2022-07-06T06:02:25;96323.00;;;22.32;100.00
10796;BME280;5450;42.994;23.372;2022-07-06T06:04:52;96349.28;;;22.63;100.00
10796;BME280;5450;42.994;23.372;2022-07-06T06:07:19;96353.91;;;22.68;100.00
10796;BME280;5450;42.994;23.372;2022-07-06T06:09:46;96309.34;;;22.17;100.00
10796;BME280;5450;42.994;23.372;2022-07-06T06:12:14;96363.50;;;22.52;100.00
10796;BME280;5450;42.994;23.372;2022-07-06T06:14:41;96321.94;;;22.33;100.00
10796;BME280;5450;42.994;23.372;2022-07-06T06:17:09;96350.09;;;22.64;100.00
10796;BME280;5450;42.994;23.372;2022-07-06T06:19:36;96362.78;;;22.69;100.00
10796;BME280;5450;42.994;23.372;2022-07-06T06:22:03;96182.22;;;21.47;100.00
10796;BME280;5450;42.994;23.372;2022-07-06T06:24:30;96297.38;;;22.08;100.00
10796;BME280;5450;42.994;23.372;2022-07-06T06:26:57;96224.16;;;21.06;100.00
10796;BME280;5450;42.994;23.372;2022-07-06T06:29:27;96258.66;;;21.20;100.00
10796;BME280;5450;42.994;23.372;2022-07-06T06:31:54;96224.63;;;21.03;100.00
10796;BME280;5450;42.994;23.372;2022-07-06T06:34:21;96209.88;;;21.12;100.00
10796;BME280;5450;42.994;23.372;2022-07-06T06:36:49;96345.84;;;22.23;100.00
10796;BME280;5450;42.994;23.372;2022-07-06T06:39:17;96361.13;;;22.11;100.00
10796;BME280;5450;42.994;23.372;2022-07-06T06:41:46;96328.88;;;21.78;100.00
10796;BME280;5450;42.994;23.372;2022-07-06T06:44:13;96338.50;;;21.79;100.00
10796;BME280;5450;42.994;23.372;2022-07-06T06:46:41;96286.59;;;21.52;100.00
10796;BME280;5450;42.994;23.372;2022-07-06T06:49:08;96351.59;;;22.15;100.00
10796;BME280;5450;42.994;23.372;2022-07-06T06:51:36;96290.72;;;21.71;100.00
10796;BME280;5450;42.994;23.372;2022-07-06T06:54:05;96299.19;;;21.79;100.00
10796;BME280;5450;42.994;23.372;2022-07-06T06:56:48;96160.75;;;21.13;100.00
10796;BME280;5450;42.994;23.372;2022-07-06T06:59:21;96229.66;;;21.40;100.00
10796;BME280;5450;42.994;23.372;2022-07-06T07:01:50;96388.56;;;22.46;100.00
10796;BME280;5450;42.994;23.372;2022-07-06T07:04:17;96166.75;;;21.49;100.00
10796;BME280;5450;42.994;23.372;2022-07-06T07:06:45;96220.50;;;21.75;100.00
10796;BME280;5450;42.994;23.372;2022-07-06T07:09:13;96323.13;;;22.54;100.00
10796;BME280;5450;42.994;23.372;2022-07-06T07:11:44;96278.63;;;22.36;100.00
10796;BME280;5450;42.994;23.372;2022-07-06T07:14:11;96308.75;;;22.43;100.00
10796;BME280;5450;42.994;23.372;2022-07-06T07:16:38;96257.88;;;22.43;100.00
10796;BME280;5450;42.994;23.372;2022-07-06T07:19:06;96231.88;;;22.27;100.00
10796;BME280;5450;42.994;23.372;2022-07-06T07:21:34;96350.34;;;23.29;100.00
10796;BME280;5450;42.994;23.372;2022-07-06T07:24:03;96163.31;;;22.26;100.00
10796;BME280;5450;42.994;23.372;2022-07-06T07:26:52;96213.56;;;22.36;100.00
10796;BME280;5450;42.994;23.372;2022-07-06T07:29:55;96288.53;;;23.19;100.00
10796;BME280;5450;42.994;23.372;2022-07-06T07:32:36;96263.66;;;23.40;100.00
10796;BME280;5450;42.994;23.372;2022-07-06T07:45:38;96263.28;;;24.50;100.00
10796;BME280;5450;42.994;23.372;2022-07-06T07:51:46;96267.03;;;24.49;100.00
10796;BME280;5450;42.994;23.372;2022-07-06T07:55:15;96156.03;;;23.80;100.00
10796;BME280;5450;42.994;23.372;2022-07-06T07:59:41;96192.41;;;23.71;100.00
10796;BME280;5450;42.994;23.372;2022-07-06T08:54:07;96358.34;;;25.76;100.00
10796;BME280;5450;42.994;23.372;2022-07-06T10:45:15;96283.38;;;23.94;100.00
10796;BME280;5450;42.994;23.372;2022-07-06T10:47:46;96293.47;;;24.08;100.00
10796;BME280;5450;42.994;23.372;2022-07-06T10:50:12;96306.56;;;24.27;100.00
10796;BME280;5450;42.994;23.372;2022-07-06T10:52:51;96302.50;;;24.24;100.00
10796;BME280;5450;42.994;23.372;2022-07-06T10:55:31;96293.84;;;23.95;100.00
10796;BME280;5450;42.994;23.372;2022-07-06T10:57:59;96305.84;;;24.09;100.00
10796;BME280;5450;42.994;23.372;2022-07-06T11:00:47;96302.50;;;24.24;100.00
10796;BME280;5450;42.994;23.372;2022-07-06T11:03:34;96252.78;;;23.95;100.00
10796;BME280;5450;42.994;23.372;2022-07-06T11:06:05;96288.94;;;24.09;100.00
10796;BME280;5450;42.994;23.372;2022-07-06T11:09:04;96281.75;;;24.15;100.00
10796;BME280;5450;42.994;23.372;2022-07-06T11:11:40;96225.59;;;23.86;100.00
10796;BME280;5450;42.994;23.372;2022-07-06T11:14:14;96299.69;;;24.36;100.00
10796;BME280;5450;42.994;23.372;2022-07-06T11:17:02;96270.94;;;24.09;100.00
10796;BME280;5450;42.994;23.372;2022-07-06T11:19:31;96174.13;;;23.41;100.00
10796;BME280;5450;42.994;23.372;2022-07-06T11:22:05;96286.88;;;24.16;100.00
10796;BME280;5450;42.994;23.372;2022-07-06T11:24:34;96267.78;;;24.13;100.00
10796;BME280;5450;42.994;23.372;2022-07-06T11:27:04;96269.19;;;24.20;100.00
10796;BME280;5450;42.994;23.372;2022-07-06T11:29:33;96293.78;;;24.39;100.00
10796;BME280;5450;42.994;23.372;2022-07-06T11:32:04;96265.69;;;24.20;100.00
10796;BME280;5450;42.994;23.372;2022-07-06T11:34:34;96221.34;;;23.90;100.00
10796;BME280;5450;42.994;23.372;2022-07-06T11:37:04;96261.25;;;24.08;100.00
10796;BME280;5450;42.994;23.372;2022-07-06T11:39:34;96277.25;;;23.98;100.00
10796;BME280;5450;42.994;23.372;2022-07-06T11:42:03;96273.31;;;24.28;100.00
10796;BME280;5450;42.994;23.372;2022-07-06T11:44:30;96204.00;;;24.03;100.00
10796;BME280;5450;42.994;23.372;2022-07-06T11:46:58;96221.44;;;24.00;100.00
10796;BME280;5450;42.994;23.372;2022-07-06T11:49:29;96265.63;;;24.41;100.00
10796;BME280;5450;42.994;23.372;2022-07-06T11:51:57;96266.44;;;24.42;100.00
10796;BME280;5450;42.994;23.372;2022-07-06T11:54:25;96246.25;;;24.39;100.00
10796;BME280;5450;42.994;23.372;2022-07-06T11:56:55;96254.25;;;24.61;100.00
10796;BME280;5450;42.994;23.372;2022-07-06T11:59:26;96248.88;;;24.61;100.00
10796;BME280;5450;42.994;23.372;2022-07-06T12:02:00;96229.44;;;24.49;100.00
10796;BME280;5450;42.994;23.372;2022-07-06T12:04:30;96254.34;;;24.71;100.00
10796;BME280;5450;42.994;23.372;2022-07-06T12:07:00;96269.03;;;24.63;100.00
10796;BME280;5450;42.994;23.372;2022-07-06T12:09:30;96263.94;;;24.67;100.00
10796;BME280;5450;42.994;23.372;2022-07-06T12:11:57;96157.38;;;24.09;100.00
10796;BME280;5450;42.994;23.372;2022-07-06T12:18:35;96247.25;;;24.60;100.00
10796;BME280;5450;42.994;23.372;2022-07-06T12:24:23;96244.81;;;24.58;100.00
10796;BME280;5450;42.994;23.372;2022-07-06T12:26:52;96228.47;;;24.60;100.00
10796;BME280;5450;42.994;23.372;2022-07-06T12:29:20;96257.53;;;24.68;100.00
10796;BME280;5450;42.994;23.372;2022-07-06T12:31:51;96138.78;;;24.02;100.00
10796;BME280;5450;42.994;23.372;2022-07-06T12:34:21;96251.88;;;24.64;100.00
10796;BME280;5450;42.994;23.372;2022-07-06T12:36:49;96267.03;;;24.49;100.00
10796;BME280;5450;42.994;23.372;2022-07-06T12:39:19;96296.13;;;24.30;100.00
10796;BME280;5450;42.994;23.372;2022-07-06T12:41:49;96270.00;;;24.21;100.00
10796;BME280;5450;42.994;23.372;2022-07-06T12:44:18;96273.63;;;24.09;100.00
10796;BME280;5450;42.994;23.372;2022-07-06T12:46:47;96265.28;;;23.84;100.00
10796;BME280;5450;42.994;23.372;2022-07-06T12:49:16;96263.47;;;23.68;100.00
10796;BME280;5450;42.994;23.372;2022-07-06T12:51:56;96256.91;;;23.59;100.00
10796;BME280;5450;42.994;23.372;2022-07-06T12:54:26;96253.78;;;23.67;100.00
10796;BME280;5450;42.994;23.372;2022-07-06T12:57:07;96248.75;;;23.71;100.00
10796;BME280;5450;42.994;23.372;2022-07-06T12:59:37;96234.34;;;23.55;100.00
10796;BME280;5450;42.994;23.372;2022-07-06T13:02:05;96238.38;;;23.79;100.00
10796;BME280;5450;42.994;23.372;2022-07-06T13:04:35;96231.16;;;23.80;100.00
10796;BME280;5450;42.994;23.372;2022-07-06T13:07:03;96192.81;;;23.58;100.00
10796;BME280;5450;42.994;23.372;2022-07-06T13:09:31;96236.44;;;23.96;100.00
10796;BME280;5450;42.994;23.372;2022-07-06T13:11:59;96247.59;;;24.10;100.00
10796;BME280;5450;42.994;23.372;2022-07-06T13:14:28;96223.38;;;24.05;100.00
10796;BME280;5450;42.994;23.372;2022-07-06T13:16:55;96179.19;;;23.64;100.00
10796;BME280;5450;42.994;23.372;2022-07-06T13:19:24;96200.28;;;23.77;100.00
10796;BME280;5450;42.994;23.372;2022-07-06T13:21:52;96209.28;;;23.93;100.00
10796;BME280;5450;42.994;23.372;2022-07-06T13:24:23;96180.56;;;23.93;100.00
10796;BME280;5450;42.994;23.372;2022-07-06T13:26:53;96168.56;;;23.74;100.00
10796;BME280;5450;42.994;23.372;2022-07-06T13:29:21;96223.66;;;24.35;100.00
10796;BME280;5450;42.994;23.372;2022-07-06T13:31:51;96181.25;;;24.05;100.00
10796;BME280;5450;42.994;23.372;2022-07-06T13:34:21;96158.84;;;23.95;100.00
10796;BME280;5450;42.994;23.372;2022-07-06T13:36:49;96089.78;;;23.32;100.00
10796;BME280;5450;42.994;23.372;2022-07-06T13:39:18;96238.38;;;24.28;100.00
10796;BME280;5450;42.994;23.372;2022-07-06T13:41:45;96226.22;;;24.52;100.00
10796;BME280;5450;42.994;23.372;2022-07-06T13:44:13;96226.69;;;24.44;100.00
10796;BME280;5450;42.994;23.372;2022-07-06T13:46:41;96196.41;;;24.22;100.00
10796;BME280;5450;42.994;23.372;2022-07-06T13:49:11;96232.56;;;24.41;100.00
10796;BME280;5450;42.994;23.372;2022-07-06T13:51:40;96230.00;;;24.51;100.00
10796;BME280;5450;42.994;23.372;2022-07-06T13:54:08;96224.09;;;24.54;100.00
10796;BME280;5450;42.994;23.372;2022-07-06T13:56:38;96217.66;;;24.55;100.00
10796;BME280;5450;42.994;23.372;2022-07-06T13:59:07;96230.78;;;24.83;100.00
10796;BME280;5450;42.994;23.372;2022-07-06T14:01:35;96103.16;;;23.80;100.00
10796;BME280;5450;42.994;23.372;2022-07-06T14:04:02;96212.41;;;24.70;100.00
10796;BME280;5450;42.994;23.372;2022-07-06T14:06:33;96224.31;;;24.79;100.00
10796;BME280;5450;42.994;23.372;2022-07-06T14:09:04;96198.09;;;24.59;100.00
10796;BME280;5450;42.994;23.372;2022-07-06T14:11:32;96183.66;;;24.34;100.00
10796;BME280;5450;42.994;23.372;2022-07-06T14:14:00;96221.28;;;24.70;100.00
10796;BME280;5450;42.994;23.372;2022-07-06T14:16:28;96237.81;;;24.89;100.00
10796;BME280;5450;42.994;23.372;2022-07-06T14:18:59;96207.72;;;24.55;100.00
10796;BME280;5450;42.994;23.372;2022-07-06T14:21:27;96228.16;;;24.93;100.00
10796;BME280;5450;42.994;23.372;2022-07-06T14:23:55;96113.56;;;24.03;100.00
10796;BME280;5450;42.994;23.372;2022-07-06T14:26:22;96237.81;;;24.89;100.00
10796;BME280;5450;42.994;23.372;2022-07-06T14:28:50;96217.78;;;24.70;100.00
10796;BME280;5450;42.994;23.372;2022-07-06T14:31:17;96215.22;;;24.85;100.00
10796;BME280;5450;42.994;23.372;2022-07-06T14:33:45;96158.06;;;24.58;100.00
10796;BME280;5450;42.994;23.372;2022-07-06T14:36:13;96210.97;;;24.94;100.00
10796;BME280;5450;42.994;23.372;2022-07-06T14:38:40;96209.81;;;24.80;100.00
10796;BME280;5450;42.994;23.372;2022-07-06T14:41:10;96175.94;;;24.42;100.00
10796;BME280;5450;42.994;23.372;2022-07-06T14:43:37;96197.88;;;24.66;100.00
10796;BME280;5450;42.994;23.372;2022-07-06T14:46:07;96180.19;;;24.38;100.00
10796;BME280;5450;42.994;23.372;2022-07-06T14:48:34;96186.97;;;24.46;100.00
10796;BME280;5450;42.994;23.372;2022-07-06T14:51:04;96198.34;;;24.58;100.00
10796;BME280;5450;42.994;23.372;2022-07-06T14:53:32;96190.34;;;24.68;100.00
10796;BME280;5450;42.994;23.372;2022-07-06T14:56:00;96187.34;;;24.59;100.00
10796;BME280;5450;42.994;23.372;2022-07-06T14:58:30;96209.94;;;24.63;100.00
10796;BME280;5450;42.994;23.372;2022-07-06T15:00:57;96090.00;;;24.05;100.00
10796;BME280;5450;42.994;23.372;2022-07-06T15:03:25;96188.31;;;24.80;100.00
10796;BME280;5450;42.994;23.372;2022-07-06T15:05:53;96117.44;;;24.13;100.00
10796;BME280;5450;42.994;23.372;2022-07-06T15:08:21;96017.28;;;23.75;100.00
10796;BME280;5450;42.994;23.372;2022-07-06T15:10:49;96065.72;;;23.95;100.00
10796;BME280;5450;42.994;23.372;2022-07-06T15:13:17;96117.13;;;24.46;100.00
10796;BME280;5450;42.994;23.372;2022-07-06T15:15:50;96110.94;;;24.45;100.00
10796;BME280;5450;42.994;23.372;2022-07-06T15:18:20;96179.78;;;24.88;100.00
10796;BME280;5450;42.994;23.372;2022-07-06T15:20:47;96182.47;;;24.93;100.00
10796;BME280;5450;42.994;23.372;2022-07-06T15:23:14;96157.00;;;24.64;100.00
10796;BME280;5450;42.994;23.372;2022-07-06T15:25:42;96122.50;;;24.09;100.00
10796;BME280;5450;42.994;23.372;2022-07-06T15:28:11;96183.91;;;24.69;100.00
10796;BME280;5450;42.994;23.372;2022-07-06T15:30:42;96079.59;;;23.87;100.00
10796;BME280;5450;42.994;23.372;2022-07-06T15:33:11;96091.63;;;23.80;100.00
10796;BME280;5450;42.994;23.372;2022-07-06T15:35:39;96189.25;;;24.64;100.00
10796;BME280;5450;42.994;23.372;2022-07-06T15:38:06;96165.16;;;24.05;100.00
10796;BME280;5450;42.994;23.372;2022-07-06T15:40:33;96201.47;;;24.45;100.00
10796;BME280;5450;42.994;23.372;2022-07-06T15:43:05;96212.78;;;24.47;100.00
10796;BME280;5450;42.994;23.372;2022-07-06T15:45:32;96171.00;;;24.29;100.00
10796;BME280;5450;42.994;23.372;2022-07-06T15:48:00;96194.09;;;24.67;100.00
10796;BME280;5450;42.994;23.372;2022-07-06T15:50:28;96185.41;;;24.55;100.00
10796;BME280;5450;42.994;23.372;2022-07-06T15:52:56;96114.16;;;24.05;100.00
10796;BME280;5450;42.994;23.372;2022-07-06T15:55:24;96107.34;;;23.98;100.00
10796;BME280;5450;42.994;23.372;2022-07-06T15:57:53;96176.41;;;24.34;100.00
10796;BME280;5450;42.994;23.372;2022-07-06T16:00:21;96170.06;;;24.14;100.00
10796;BME280;5450;42.994;23.372;2022-07-06T16:02:48;96169.22;;;24.08;100.00